sensor_id;sensor_type;location;lat;lon;timestamp;temperature;humidity
16907;DHT22;8570;52.380;4.654;2023-06-14T00:01:19;20.40;91.30
16907;DHT22;8570;52.380;4.654;2023-06-14T00:06:22;20.40;91.50
16907;DHT22;8570;52.380;4.654;2023-06-14T00:11:24;20.30;91.60
16907;DHT22;8570;52.380;4.654;2023-06-14T00:16:28;20.30;91.70
16907;DHT22;8570;52.380;4.654;2023-06-14T00:21:30;20.20;91.80
16907;DHT22;8570;52.380;4.654;2023-06-14T00:26:32;20.10;91.90
16907;DHT22;8570;52.380;4.654;2023-06-14T00:31:35;20.10;92.00
16907;DHT22;8570;52.380;4.654;2023-06-14T00:36:37;20.10;92.20
16907;DHT22;8570;52.380;4.654;2023-06-14T00:41:39;20.00;92.20
16907;DHT22;8570;52.380;4.654;2023-06-14T00:46:42;20.00;92.20
16907;DHT22;8570;52.380;4.654;2023-06-14T00:51:45;19.90;92.30
16907;DHT22;8570;52.380;4.654;2023-06-14T00:56:47;19.80;92.30
16907;DHT22;8570;52.380;4.654;2023-06-14T01:01:50;19.80;92.40
16907;DHT22;8570;52.380;4.654;2023-06-14T01:06:59;19.70;92.60
16907;DHT22;8570;52.380;4.654;2023-06-14T01:12:07;19.70;92.60
16907;DHT22;8570;52.380;4.654;2023-06-14T01:17:12;19.60;92.60
16907;DHT22;8570;52.380;4.654;2023-06-14T01:22:17;19.60;92.50
16907;DHT22;8570;52.380;4.654;2023-06-14T01:27:21;19.50;92.40
16907;DHT22;8570;52.380;4.654;2023-06-14T01:32:25;19.50;92.50
16907;DHT22;8570;52.380;4.654;2023-06-14T01:37:28;19.40;92.40
16907;DHT22;8570;52.380;4.654;2023-06-14T01:42:32;19.40;92.20
16907;DHT22;8570;52.380;4.654;2023-06-14T01:47:36;19.30;92.10
16907;DHT22;8570;52.380;4.654;2023-06-14T01:52:38;19.30;92.20
16907;DHT22;8570;52.380;4.654;2023-06-14T01:57:41;19.20;92.00
16907;DHT22;8570;52.380;4.654;2023-06-14T02:02:43;19.20;91.90
16907;DHT22;8570;52.380;4.654;2023-06-14T02:07:45;19.10;91.70
16907;DHT22;8570;52.380;4.654;2023-06-14T02:12:48;19.10;91.50
16907;DHT22;8570;52.380;4.654;2023-06-14T02:17:50;19.00;91.20
16907;DHT22;8570;52.380;4.654;2023-06-14T02:22:52;18.90;91.00
16907;DHT22;8570;52.380;4.654;2023-06-14T02:27:56;18.80;90.90
16907;DHT22;8570;52.380;4.654;2023-06-14T02:32:57;18.80;91.00
16907;DHT22;8570;52.380;4.654;2023-06-14T02:37:59;18.70;91.00
16907;DHT22;8570;52.380;4.654;2023-06-14T02:43:03;18.60;90.90
16907;DHT22;8570;52.380;4.654;2023-06-14T02:48:05;18.60;90.80
16907;DHT22;8570;52.380;4.654;2023-06-14T02:53:06;18.50;90.70
16907;DHT22;8570;52.380;4.654;2023-06-14T02:58:10;18.50;90.70
16907;DHT22;8570;52.380;4.654;2023-06-14T03:03:11;18.40;90.70
16907;DHT22;8570;52.380;4.654;2023-06-14T03:08:14;18.40;90.70
16907;DHT22;8570;52.380;4.654;2023-06-14T03:13:19;18.30;90.70
16907;DHT22;8570;52.380;4.654;2023-06-14T03:18:21;18.30;90.80
16907;DHT22;8570;52.380;4.654;2023-06-14T03:23:23;18.20;90.70
16907;DHT22;8570;52.380;4.654;2023-06-14T03:28:27;18.20;90.80
16907;DHT22;8570;52.380;4.654;2023-06-14T03:33:29;18.20;90.90
16907;DHT22;8570;52.380;4.654;2023-06-14T03:38:30;18.10;90.90
16907;DHT22;8570;52.380;4.654;2023-06-14T03:43:34;18.10;90.90
16907;DHT22;8570;52.380;4.654;2023-06-14T03:48:35;18.00;91.00
16907;DHT22;8570;52.380;4.654;2023-06-14T03:53:37;18.00;91.10
16907;DHT22;8570;52.380;4.654;2023-06-14T03:58:40;17.90;91.10
16907;DHT22;8570;52.380;4.654;2023-06-14T04:03:42;17.90;91.40
16907;DHT22;8570;52.380;4.654;2023-06-14T04:08:44;17.90;91.10
16907;DHT22;8570;52.380;4.654;2023-06-14T04:13:47;17.90;91.10
16907;DHT22;8570;52.380;4.654;2023-06-14T04:18:49;17.90;91.10
16907;DHT22;8570;52.380;4.654;2023-06-14T04:23:52;17.90;91.30
16907;DHT22;8570;52.380;4.654;2023-06-14T04:28:57;17.80;91.30
16907;DHT22;8570;52.380;4.654;2023-06-14T04:34:02;17.80;91.30
16907;DHT22;8570;52.380;4.654;2023-06-14T04:39:06;17.80;91.50
16907;DHT22;8570;52.380;4.654;2023-06-14T04:44:10;17.80;91.60
16907;DHT22;8570;52.380;4.654;2023-06-14T04:49:13;17.80;91.60
16907;DHT22;8570;52.380;4.654;2023-06-14T04:54:16;17.80;91.60
16907;DHT22;8570;52.380;4.654;2023-06-14T04:59:20;17.80;91.60
16907;DHT22;8570;52.380;4.654;2023-06-14T05:04:23;17.80;91.50
16907;DHT22;8570;52.380;4.654;2023-06-14T05:09:26;17.80;91.60
16907;DHT22;8570;52.380;4.654;2023-06-14T05:14:30;17.80;91.60
16907;DHT22;8570;52.380;4.654;2023-06-14T05:19:32;17.90;91.60
16907;DHT22;8570;52.380;4.654;2023-06-14T05:24:33;17.90;91.50
16907;DHT22;8570;52.380;4.654;2023-06-14T05:29:37;17.90;91.60
16907;DHT22;8570;52.380;4.654;2023-06-14T05:34:39;17.90;91.40
16907;DHT22;8570;52.380;4.654;2023-06-14T05:39:41;17.90;91.20
16907;DHT22;8570;52.380;4.654;2023-06-14T05:44:44;18.00;91.10
16907;DHT22;8570;52.380;4.654;2023-06-14T05:49:46;18.00;91.20
16907;DHT22;8570;52.380;4.654;2023-06-14T05:54:48;18.00;91.20
16907;DHT22;8570;52.380;4.654;2023-06-14T05:59:51;18.10;91.10
16907;DHT22;8570;52.380;4.654;2023-06-14T06:04:54;18.10;91.10
16907;DHT22;8570;52.380;4.654;2023-06-14T06:09:57;18.20;91.10
16907;DHT22;8570;52.380;4.654;2023-06-14T06:15:00;18.20;91.30
16907;DHT22;8570;52.380;4.654;2023-06-14T06:20:02;18.30;91.00
16907;DHT22;8570;52.380;4.654;2023-06-14T06:25:07;18.40;91.00
16907;DHT22;8570;52.380;4.654;2023-06-14T06:30:11;18.40;91.00
16907;DHT22;8570;52.380;4.654;2023-06-14T06:35:14;18.50;90.80
16907;DHT22;8570;52.380;4.654;2023-06-14T06:40:16;18.50;90.60
16907;DHT22;8570;52.380;4.654;2023-06-14T06:45:19;18.60;90.50
16907;DHT22;8570;52.380;4.654;2023-06-14T06:50:21;18.60;90.30
16907;DHT22;8570;52.380;4.654;2023-06-14T06:55:25;18.70;90.10
16907;DHT22;8570;52.380;4.654;2023-06-14T07:00:28;18.80;90.20
16907;DHT22;8570;52.380;4.654;2023-06-14T07:05:30;18.90;90.10
16907;DHT22;8570;52.380;4.654;2023-06-14T07:10:32;19.00;90.10
16907;DHT22;8570;52.380;4.654;2023-06-14T07:15:36;19.20;90.10
16907;DHT22;8570;52.380;4.654;2023-06-14T07:20:38;19.30;90.00
16907;DHT22;8570;52.380;4.654;2023-06-14T07:25:40;19.40;90.00
16907;DHT22;8570;52.380;4.654;2023-06-14T07:30:44;19.50;90.00
16907;DHT22;8570;52.380;4.654;2023-06-14T07:35:46;19.70;90.10
16907;DHT22;8570;52.380;4.654;2023-06-14T07:40:48;19.90;90.00
16907;DHT22;8570;52.380;4.654;2023-06-14T07:45:52;20.00;89.70
16907;DHT22;8570;52.380;4.654;2023-06-14T07:50:53;20.20;89.70
16907;DHT22;8570;52.380;4.654;2023-06-14T07:55:56;20.30;89.40
16907;DHT22;8570;52.380;4.654;2023-06-14T08:00:59;20.60;89.40
16907;DHT22;8570;52.380;4.654;2023-06-14T08:06:06;20.90;88.70
16907;DHT22;8570;52.380;4.654;2023-06-14T08:11:11;21.30;88.30
16907;DHT22;8570;52.380;4.654;2023-06-14T08:16:15;21.70;86.60
16907;DHT22;8570;52.380;4.654;2023-06-14T08:21:16;22.20;85.50
16907;DHT22;8570;52.380;4.654;2023-06-14T08:26:18;22.60;84.30
16907;DHT22;8570;52.380;4.654;2023-06-14T08:31:22;23.10;82.70
16907;DHT22;8570;52.380;4.654;2023-06-14T08:36:25;23.50;82.30
16907;DHT22;8570;52.380;4.654;2023-06-14T08:41:28;23.90;81.70
16907;DHT22;8570;52.380;4.654;2023-06-14T08:46:33;24.40;79.20
16907;DHT22;8570;52.380;4.654;2023-06-14T08:51:39;24.70;78.20
16907;DHT22;8570;52.380;4.654;2023-06-14T08:56:42;25.20;77.50
16907;DHT22;8570;52.380;4.654;2023-06-14T09:01:46;25.60;78.20
16907;DHT22;8570;52.380;4.654;2023-06-14T09:06:48;26.00;76.70
16907;DHT22;8570;52.380;4.654;2023-06-14T09:11:55;26.50;74.90
16907;DHT22;8570;52.380;4.654;2023-06-14T09:16:59;27.00;73.90
16907;DHT22;8570;52.380;4.654;2023-06-14T09:22:00;27.40;71.20
16907;DHT22;8570;52.380;4.654;2023-06-14T09:27:06;27.70;70.20
16907;DHT22;8570;52.380;4.654;2023-06-14T09:32:12;27.90;69.50
16907;DHT22;8570;52.380;4.654;2023-06-14T09:37:27;28.20;68.20
16907;DHT22;8570;52.380;4.654;2023-06-14T09:42:31;28.40;65.60
16907;DHT22;8570;52.380;4.654;2023-06-14T09:47:38;28.60;64.30
16907;DHT22;8570;52.380;4.654;2023-06-14T09:52:43;28.80;62.00
16907;DHT22;8570;52.380;4.654;2023-06-14T09:57:47;29.00;61.30
16907;DHT22;8570;52.380;4.654;2023-06-14T10:03:00;29.10;62.60
16907;DHT22;8570;52.380;4.654;2023-06-14T10:08:07;29.30;60.90
16907;DHT22;8570;52.380;4.654;2023-06-14T10:13:10;29.60;59.60
16907;DHT22;8570;52.380;4.654;2023-06-14T10:18:17;29.70;60.90
16907;DHT22;8570;52.380;4.654;2023-06-14T10:23:24;29.90;59.30
16907;DHT22;8570;52.380;4.654;2023-06-14T10:28:26;30.10;58.90
16907;DHT22;8570;52.380;4.654;2023-06-14T10:33:34;30.20;58.50
16907;DHT22;8570;52.380;4.654;2023-06-14T10:38:37;30.30;58.60
16907;DHT22;8570;52.380;4.654;2023-06-14T10:43:45;30.40;57.70
16907;DHT22;8570;52.380;4.654;2023-06-14T10:48:48;30.50;57.70
16907;DHT22;8570;52.380;4.654;2023-06-14T10:53:51;30.60;58.10
16907;DHT22;8570;52.380;4.654;2023-06-14T10:58:52;30.70;56.70
16907;DHT22;8570;52.380;4.654;2023-06-14T11:04:07;30.80;57.10
16907;DHT22;8570;52.380;4.654;2023-06-14T11:09:42;30.90;57.70
16907;DHT22;8570;52.380;4.654;2023-06-14T11:14:48;30.90;56.80
16907;DHT22;8570;52.380;4.654;2023-06-14T11:20:07;30.90;56.30
16907;DHT22;8570;52.380;4.654;2023-06-14T11:25:11;30.90;56.50
16907;DHT22;8570;52.380;4.654;2023-06-14T11:30:13;31.00;56.10
16907;DHT22;8570;52.380;4.654;2023-06-14T11:35:17;31.10;57.80
16907;DHT22;8570;52.380;4.654;2023-06-14T11:40:19;31.20;58.70
16907;DHT22;8570;52.380;4.654;2023-06-14T11:45:21;31.20;58.60
16907;DHT22;8570;52.380;4.654;2023-06-14T11:50:25;31.10;60.00
16907;DHT22;8570;52.380;4.654;2023-06-14T11:55:28;31.10;59.30
16907;DHT22;8570;52.380;4.654;2023-06-14T12:00:30;31.00;58.50
16907;DHT22;8570;52.380;4.654;2023-06-14T12:05:35;30.90;58.00
16907;DHT22;8570;52.380;4.654;2023-06-14T12:10:41;30.90;58.20
16907;DHT22;8570;52.380;4.654;2023-06-14T12:15:44;30.90;57.70
16907;DHT22;8570;52.380;4.654;2023-06-14T12:20:50;30.90;56.10
16907;DHT22;8570;52.380;4.654;2023-06-14T12:25:52;30.90;56.20
16907;DHT22;8570;52.380;4.654;2023-06-14T12:30:54;30.90;56.10
16907;DHT22;8570;52.380;4.654;2023-06-14T12:36:03;30.90;56.00
16907;DHT22;8570;52.380;4.654;2023-06-14T12:41:15;31.00;56.20
16907;DHT22;8570;52.380;4.654;2023-06-14T12:46:17;31.00;56.70
16907;DHT22;8570;52.380;4.654;2023-06-14T12:51:21;31.20;55.80
16907;DHT22;8570;52.380;4.654;2023-06-14T12:56:23;31.10;54.80
16907;DHT22;8570;52.380;4.654;2023-06-14T13:01:25;31.10;55.10
16907;DHT22;8570;52.380;4.654;2023-06-14T13:06:28;31.10;55.10
16907;DHT22;8570;52.380;4.654;2023-06-14T13:11:31;31.10;54.80
16907;DHT22;8570;52.380;4.654;2023-06-14T13:16:33;31.10;55.10
16907;DHT22;8570;52.380;4.654;2023-06-14T13:21:37;31.20;54.90
16907;DHT22;8570;52.380;4.654;2023-06-14T13:26:39;31.30;54.10
16907;DHT22;8570;52.380;4.654;2023-06-14T13:31:41;31.30;54.40
16907;DHT22;8570;52.380;4.654;2023-06-14T13:36:45;31.30;54.10
16907;DHT22;8570;52.380;4.654;2023-06-14T13:41:50;31.40;54.70
16907;DHT22;8570;52.380;4.654;2023-06-14T13:46:52;31.40;54.50
16907;DHT22;8570;52.380;4.654;2023-06-14T13:51:56;31.40;53.70
16907;DHT22;8570;52.380;4.654;2023-06-14T13:57:09;31.40;53.70
16907;DHT22;8570;52.380;4.654;2023-06-14T14:02:13;31.40;53.20
16907;DHT22;8570;52.380;4.654;2023-06-14T14:07:16;31.40;53.00
16907;DHT22;8570;52.380;4.654;2023-06-14T14:12:35;31.50;52.30
16907;DHT22;8570;52.380;4.654;2023-06-14T14:17:42;31.50;52.00
16907;DHT22;8570;52.380;4.654;2023-06-14T14:22:45;31.50;51.70
16907;DHT22;8570;52.380;4.654;2023-06-14T14:27:47;31.50;51.70
16907;DHT22;8570;52.380;4.654;2023-06-14T14:32:52;31.50;51.30
16907;DHT22;8570;52.380;4.654;2023-06-14T14:37:55;31.60;52.00
16907;DHT22;8570;52.380;4.654;2023-06-14T14:43:01;31.60;51.50
16907;DHT22;8570;52.380;4.654;2023-06-14T14:48:17;31.60;50.80
16907;DHT22;8570;52.380;4.654;2023-06-14T14:53:22;31.60;50.30
16907;DHT22;8570;52.380;4.654;2023-06-14T14:58:24;31.50;50.10
16907;DHT22;8570;52.380;4.654;2023-06-14T15:03:33;31.50;50.30
16907;DHT22;8570;52.380;4.654;2023-06-14T15:08:53;31.50;51.00
16907;DHT22;8570;52.380;4.654;2023-06-14T15:13:57;31.50;50.20
16907;DHT22;8570;52.380;4.654;2023-06-14T15:19:08;31.50;50.70
16907;DHT22;8570;52.380;4.654;2023-06-14T15:24:26;31.50;50.60
16907;DHT22;8570;52.380;4.654;2023-06-14T15:29:28;31.40;50.00
16907;DHT22;8570;52.380;4.654;2023-06-14T15:34:32;31.40;50.60
16907;DHT22;8570;52.380;4.654;2023-06-14T15:39:44;31.40;51.00
16907;DHT22;8570;52.380;4.654;2023-06-14T15:44:51;31.30;50.70
16907;DHT22;8570;52.380;4.654;2023-06-14T15:49:58;31.20;50.70
16907;DHT22;8570;52.380;4.654;2023-06-14T15:55:01;31.10;50.70
16907;DHT22;8570;52.380;4.654;2023-06-14T16:00:05;31.00;51.10
16907;DHT22;8570;52.380;4.654;2023-06-14T16:05:09;31.00;51.60
16907;DHT22;8570;52.380;4.654;2023-06-14T16:10:25;30.90;51.30
16907;DHT22;8570;52.380;4.654;2023-06-14T16:15:33;30.70;51.30
16907;DHT22;8570;52.380;4.654;2023-06-14T16:20:48;30.70;51.10
16907;DHT22;8570;52.380;4.654;2023-06-14T16:25:55;30.60;51.20
16907;DHT22;8570;52.380;4.654;2023-06-14T16:30:58;30.40;51.60
16907;DHT22;8570;52.380;4.654;2023-06-14T16:36:00;30.30;51.60
16907;DHT22;8570;52.380;4.654;2023-06-14T16:41:03;30.10;51.90
16907;DHT22;8570;52.380;4.654;2023-06-14T16:46:05;30.00;52.40
16907;DHT22;8570;52.380;4.654;2023-06-14T16:51:12;29.90;52.80
16907;DHT22;8570;52.380;4.654;2023-06-14T16:56:15;29.80;52.60
16907;DHT22;8570;52.380;4.654;2023-06-14T17:01:25;29.70;52.70
16907;DHT22;8570;52.380;4.654;2023-06-14T17:06:28;29.60;52.00
16907;DHT22;8570;52.380;4.654;2023-06-14T17:11:31;29.30;52.30
16907;DHT22;8570;52.380;4.654;2023-06-14T17:16:33;29.20;52.50
16907;DHT22;8570;52.380;4.654;2023-06-14T17:21:49;29.00;53.00
16907;DHT22;8570;52.380;4.654;2023-06-14T17:26:57;28.80;53.10
16907;DHT22;8570;52.380;4.654;2023-06-14T17:32:05;28.60;53.70
16907;DHT22;8570;52.380;4.654;2023-06-14T17:37:10;28.40;53.60
16907;DHT22;8570;52.380;4.654;2023-06-14T17:42:16;28.20;54.30
16907;DHT22;8570;52.380;4.654;2023-06-14T17:47:18;28.10;54.70
16907;DHT22;8570;52.380;4.654;2023-06-14T17:52:23;27.90;54.70
16907;DHT22;8570;52.380;4.654;2023-06-14T17:57:31;27.80;55.50
16907;DHT22;8570;52.380;4.654;2023-06-14T18:02:37;27.70;55.70
16907;DHT22;8570;52.380;4.654;2023-06-14T18:07:44;27.60;55.60
16907;DHT22;8570;52.380;4.654;2023-06-14T18:12:50;27.40;55.60
16907;DHT22;8570;52.380;4.654;2023-06-14T18:17:55;27.30;56.10
16907;DHT22;8570;52.380;4.654;2023-06-14T18:23:02;27.20;56.40
16907;DHT22;8570;52.380;4.654;2023-06-14T18:28:08;27.00;56.50
16907;DHT22;8570;52.380;4.654;2023-06-14T18:33:15;26.80;57.00
16907;DHT22;8570;52.380;4.654;2023-06-14T18:38:20;26.70;57.60
16907;DHT22;8570;52.380;4.654;2023-06-14T18:43:25;26.60;57.70
16907;DHT22;8570;52.380;4.654;2023-06-14T18:48:27;26.50;57.60
16907;DHT22;8570;52.380;4.654;2023-06-14T18:53:31;26.40;58.60
16907;DHT22;8570;52.380;4.654;2023-06-14T18:58:35;26.30;59.10
16907;DHT22;8570;52.380;4.654;2023-06-14T19:03:45;26.10;59.60
16907;DHT22;8570;52.380;4.654;2023-06-14T19:08:52;26.00;60.00
16907;DHT22;8570;52.380;4.654;2023-06-14T19:13:55;25.90;61.00
16907;DHT22;8570;52.380;4.654;2023-06-14T19:19:02;25.80;61.30
16907;DHT22;8570;52.380;4.654;2023-06-14T19:24:07;25.70;61.70
16907;DHT22;8570;52.380;4.654;2023-06-14T19:29:31;25.60;61.70
16907;DHT22;8570;52.380;4.654;2023-06-14T19:34:34;25.40;61.70
16907;DHT22;8570;52.380;4.654;2023-06-14T19:39:44;25.30;61.70
16907;DHT22;8570;52.380;4.654;2023-06-14T19:44:47;25.20;62.10
16907;DHT22;8570;52.380;4.654;2023-06-14T19:49:59;25.10;61.80
16907;DHT22;8570;52.380;4.654;2023-06-14T19:55:03;25.00;62.00
16907;DHT22;8570;52.380;4.654;2023-06-14T20:00:09;24.90;61.80
16907;DHT22;8570;52.380;4.654;2023-06-14T20:05:11;24.80;62.10
16907;DHT22;8570;52.380;4.654;2023-06-14T20:10:13;24.70;62.80
16907;DHT22;8570;52.380;4.654;2023-06-14T20:15:17;24.60;63.80
16907;DHT22;8570;52.380;4.654;2023-06-14T20:20:18;24.50;64.60
16907;DHT22;8570;52.380;4.654;2023-06-14T20:25:20;24.40;65.90
16907;DHT22;8570;52.380;4.654;2023-06-14T20:30:24;24.40;66.90
16907;DHT22;8570;52.380;4.654;2023-06-14T20:35:26;24.30;67.30
16907;DHT22;8570;52.380;4.654;2023-06-14T20:40:28;24.20;68.10
16907;DHT22;8570;52.380;4.654;2023-06-14T20:45:31;24.20;68.60
16907;DHT22;8570;52.380;4.654;2023-06-14T20:50:33;24.00;68.80
16907;DHT22;8570;52.380;4.654;2023-06-14T20:55:35;24.00;69.50
16907;DHT22;8570;52.380;4.654;2023-06-14T21:00:38;23.90;70.50
16907;DHT22;8570;52.380;4.654;2023-06-14T21:05:42;23.70;72.30
16907;DHT22;8570;52.380;4.654;2023-06-14T21:10:45;23.60;73.40
16907;DHT22;8570;52.380;4.654;2023-06-14T21:15:49;23.50;75.40
16907;DHT22;8570;52.380;4.654;2023-06-14T21:20:51;23.30;76.90
16907;DHT22;8570;52.380;4.654;2023-06-14T21:25:52;23.20;78.20
16907;DHT22;8570;52.380;4.654;2023-06-14T21:30:56;23.10;79.90
16907;DHT22;8570;52.380;4.654;2023-06-14T21:36:13;22.90;81.30
16907;DHT22;8570;52.380;4.654;2023-06-14T21:41:18;22.80;83.10
16907;DHT22;8570;52.380;4.654;2023-06-14T21:46:24;22.70;83.30
16907;DHT22;8570;52.380;4.654;2023-06-14T21:51:26;22.50;84.60
16907;DHT22;8570;52.380;4.654;2023-06-14T21:56:31;22.50;85.50
16907;DHT22;8570;52.380;4.654;2023-06-14T22:01:34;22.40;86.00
16907;DHT22;8570;52.380;4.654;2023-06-14T22:06:36;22.30;87.30
16907;DHT22;8570;52.380;4.654;2023-06-14T22:11:44;22.20;88.10
16907;DHT22;8570;52.380;4.654;2023-06-14T22:16:51;22.20;88.90
16907;DHT22;8570;52.380;4.654;2023-06-14T22:21:54;22.10;90.00
16907;DHT22;8570;52.380;4.654;2023-06-14T22:26:58;22.00;90.10
16907;DHT22;8570;52.380;4.654;2023-06-14T22:32:01;22.00;90.60
16907;DHT22;8570;52.380;4.654;2023-06-14T22:37:05;21.90;90.30
16907;DHT22;8570;52.380;4.654;2023-06-14T22:42:07;21.90;90.40
16907;DHT22;8570;52.380;4.654;2023-06-14T22:47:10;21.90;90.60
16907;DHT22;8570;52.380;4.654;2023-06-14T22:52:13;21.80;90.70
16907;DHT22;8570;52.380;4.654;2023-06-14T22:57:15;21.80;90.90
16907;DHT22;8570;52.380;4.654;2023-06-14T23:02:22;21.80;90.90
16907;DHT22;8570;52.380;4.654;2023-06-14T23:07:38;21.70;91.10
16907;DHT22;8570;52.380;4.654;2023-06-14T23:12:40;21.60;91.30
16907;DHT22;8570;52.380;4.654;2023-06-14T23:17:43;21.60;91.40
16907;DHT22;8570;52.380;4.654;2023-06-14T23:22:50;21.50;91.50
16907;DHT22;8570;52.380;4.654;2023-06-14T23:27:52;21.50;91.60
16907;DHT22;8570;52.380;4.654;2023-06-14T23:32:57;21.40;91.80
16907;DHT22;8570;52.380;4.654;2023-06-14T23:38:00;21.30;92.00
16907;DHT22;8570;52.380;4.654;2023-06-14T23:43:02;21.30;92.00
16907;DHT22;8570;52.380;4.654;2023-06-14T23:48:08;21.20;92.10
16907;DHT22;8570;52.380;4.654;2023-06-14T23:53:10;21.20;92.20
16907;DHT22;8570;52.380;4.654;2023-06-14T23:58:13;21.10;92.20
